»·PEaware :: SKW4250 KBFL-KSFO

SKW4250 :: KBFL-KSFO

FLIGHT INFORMATION

Flight Status: Arrived
Operator:
SkyWest Airlines
More flights by this operator :: More flights under this callsign
Pilot: Skye D. (10623)
Aircraft: CANADAIR CL-600 CRJ-200
(CRJ2)
More flights by this aircraft type
Origin: KBFL Meadows
United States
Destination: KSFO San Francisco Intl
United States
More flights between these airports :: More routes between these airports
Route: MEADO3 AVE BSR BSR3
File this flight plan on PilotEdge
Remarks:
Altitude:
(Current/Filed)
30,000ft
Speed:
(Current/Filed)
317kts
Departed: 06-Feb-18 09:38 AM
Arrived: 06-Feb-18 10:22 AM
Distance/Time
Traveled:
207nm/0:44
Distance/Time
To Go:
Arrived

Flight Plot

Page will automatically refresh every two minutes.

Flight plan parsing failed; only flown route is shown


Map Options




Map Legend


Flown Route
Filed Route
Departure Airport
Arrival Airport
Navaid (VOR, NDB)
Fix

Horizontal Profiles

Position Reports

Time Latitude Longitude Heading Altitude Ground
Speed
06-Feb-18 09:26 35.437657 -119.055200 139 511ft 0kts
06-Feb-18 09:27 35.437657 -119.055200 139 511ft 0kts
06-Feb-18 09:28 35.437657 -119.055200 139 511ft 0kts
06-Feb-18 09:29 35.437657 -119.055200 139 511ft 0kts
06-Feb-18 09:30 35.437657 -119.055200 139 511ft 0kts
06-Feb-18 09:31 35.437657 -119.055200 139 511ft 0kts
06-Feb-18 09:32 35.437657 -119.055200 139 511ft 0kts
06-Feb-18 09:33 35.437657 -119.055200 139 511ft 0kts
06-Feb-18 09:34 35.437657 -119.055200 139 511ft 0kts
06-Feb-18 09:35 35.437657 -119.055200 139 511ft 0kts
06-Feb-18 09:36 35.437657 -119.055200 139 511ft 0kts
06-Feb-18 09:37 35.437657 -119.055200 139 511ft 0kts
06-Feb-18 09:38 35.437610 -119.055154 148 511ft 0kts
06-Feb-18 09:39 35.436000 -119.055242 203 511ft 0kts
06-Feb-18 09:40 35.433392 -119.053347 135 511ft 22kts
06-Feb-18 09:41 35.428231 -119.047182 135 511ft 27kts
06-Feb-18 09:42 35.425811 -119.044705 223 511ft 0kts
06-Feb-18 09:43 35.425368 -119.045636 266 511ft 16kts
06-Feb-18 09:44 35.438934 -119.062432 313 995ft 168kts
06-Feb-18 09:45 35.474364 -119.106213 312 4708ft 192kts
06-Feb-18 09:46 35.512125 -119.164888 284 7730ft 257kts
06-Feb-18 09:47 35.524117 -119.244690 280 10752ft 270kts
06-Feb-18 09:48 35.537561 -119.335124 284 12385ft 319kts
06-Feb-18 09:49 35.556097 -119.444155 284 13870ft 358kts
06-Feb-18 09:50 35.576556 -119.563738 285 16161ft 364kts
06-Feb-18 09:51 35.596958 -119.682705 285 18046ft 372kts
06-Feb-18 09:52 35.617937 -119.805488 284 19676ft 381kts
06-Feb-18 09:53 35.639541 -119.934052 284 21146ft 390kts
06-Feb-18 09:54 35.673825 -120.059805 294 22432ft 395kts
06-Feb-18 09:55 35.715135 -120.185857 294 23738ft 402kts
06-Feb-18 09:56 35.757194 -120.314527 294 24831ft 411kts
06-Feb-18 09:57 35.799786 -120.445377 295 25920ft 416kts
06-Feb-18 09:58 35.840184 -120.570020 295 27717ft 402kts
06-Feb-18 09:59 35.880826 -120.695273 295 28602ft 408kts
06-Feb-18 10:00 35.922523 -120.824539 295 29415ft 415kts
06-Feb-18 10:01 35.964986 -120.957235 295 30122ft 423kts
06-Feb-18 10:02 36.007648 -121.091178 295 30132ft 423kts
06-Feb-18 10:03 36.049394 -121.222844 295 30131ft 423kts
06-Feb-18 10:04 36.090973 -121.354540 295 30123ft 422kts
06-Feb-18 10:05 36.131848 -121.484677 295 30123ft 423kts
06-Feb-18 10:06 36.175276 -121.619525 303 30110ft 420kts
06-Feb-18 10:07 36.257863 -121.707776 326 29939ft 405kts
06-Feb-18 10:08 36.347524 -121.785913 326 27970ft 400kts
06-Feb-18 10:09 36.436617 -121.863449 325 26164ft 390kts
06-Feb-18 10:10 36.535010 -121.902892 346 24339ft 380kts
06-Feb-18 10:11 36.634376 -121.932037 346 22430ft 372kts
06-Feb-18 10:12 36.727576 -121.959383 346 20633ft 360kts
06-Feb-18 10:13 36.820895 -121.984328 347 18908ft 348kts
06-Feb-18 10:14 36.911281 -122.008009 347 16747ft 341kts
06-Feb-18 10:15 37.001061 -122.031553 348 14745ft 333kts
06-Feb-18 10:17 37.087803 -122.054333 348 11506ft 320kts
06-Feb-18 10:18 37.161717 -122.073809 348 9999ft 259kts
06-Feb-18 10:19 37.225946 -122.090744 348 8418ft 246kts
06-Feb-18 10:20 37.290539 -122.107801 348 6390ft 238kts
06-Feb-18 10:21 37.350121 -122.106082 3 5016ft 217kts
06-Feb-18 10:22 37.405670 -122.100034 4 4119ft 212kts
06-Feb-18 10:23 37.464409 -122.094197 353 4002ft 231kts
06-Feb-18 10:24 37.518320 -122.144435 307 3653ft 253kts
06-Feb-18 10:25 37.549881 -122.211662 300 2520ft 188kts
06-Feb-18 10:26 37.573490 -122.267531 299 1602ft 165kts
06-Feb-18 10:27 37.591354 -122.310795 300 814ft 129kts
06-Feb-18 10:28 37.606971 -122.347110 300 269ft 134kts
06-Feb-18 10:29 37.618549 -122.374653 297 18ft 31kts
06-Feb-18 10:30 37.619006 -122.380378 288 18ft 20kts
06-Feb-18 10:31 37.620977 -122.385228 299 18ft 16kts
06-Feb-18 10:32 37.621861 -122.388489 212 18ft 5kts
06-Feb-18 10:33 37.621667 -122.388791 238 18ft 0kts
06-Feb-18 10:34 37.621667 -122.388791 238 18ft 0kts

Navigation Log

Ident Type
Flight plan parsing failed, navigation log unavailable